Time;durP1;ratioP1;P1;durP2;ratioP2;P2;SDS_P1;SDS_P2;PMS_P1;PMS_P2;Temp;Humidity;BMP_temperature;BMP_pressure;BME280_temperature;BME280_humidity;BME280_pressure;Samples;Min_cycle;Max_cycle;Signal;HPM_P1;HPM_P2
2023/10/03 00:00:54;;;;;;;109.70;51.72;;;27.30;99.90;;;;;;5082093;28;20425;-71
2023/10/03 00:03:21;;;;;;;103.45;50.28;;;27.40;99.90;;;;;;5080205;28;20395;-70
2023/10/03 00:05:48;;;;;;;104.03;48.70;;;27.40;99.90;;;;;;5075751;28;20109;-71
2023/10/03 00:08:15;;;;;;;99.32;47.80;;;27.50;99.90;;;;;;5075196;28;20158;-67
2023/10/03 00:10:41;;;;;;;94.80;50.45;;;27.50;99.90;;;;;;5075403;28;20382;-68
2023/10/03 00:13:11;;;;;;;101.53;45.00;;;27.50;99.90;;;;;;5075581;28;20035;-65
2023/10/03 00:15:40;;;;;;;95.22;45.70;;;27.60;99.90;;;;;;5073035;28;20017;-65
2023/10/03 00:18:06;;;;;;;90.53;45.45;;;27.60;99.90;;;;;;5075328;28;20020;-65
2023/10/03 00:20:33;;;;;;;105.25;56.22;;;27.60;99.90;;;;;;5075322;28;20498;-65
2023/10/03 00:22:59;;;;;;;110.40;58.70;;;27.60;99.90;;;;;;5075018;28;20498;-64
2023/10/03 00:25:26;;;;;;;86.30;40.80;;;27.60;99.90;;;;;;5075156;28;20031;-64
2023/10/03 00:27:59;;;;;;;112.88;56.88;;;27.60;99.90;;;;;;5075250;28;20030;-66
2023/10/03 00:30:28;;;;;;;122.45;65.47;;;27.60;99.90;;;;;;5075138;28;20048;-65
2023/10/03 00:33:02;;;;;;;105.68;55.67;;;27.60;99.90;;;;;;5074996;28;20016;-65
2023/10/03 00:35:29;;;;;;;82.65;38.85;;;27.70;99.90;;;;;;5074911;28;20082;-66
2023/10/03 00:37:56;;;;;;;82.47;39.42;;;27.70;99.90;;;;;;5074998;28;20112;-66
2023/10/03 00:42:58;;;;;;;78.72;38.28;;;27.80;99.90;;;;;;5074831;28;20028;-66
2023/10/03 00:45:29;;;;;;;85.00;39.22;;;27.80;99.90;;;;;;5073249;28;20059;-66
2023/10/03 00:48:01;;;;;;;72.00;37.85;;;27.80;99.90;;;;;;5072028;28;20534;-65
2023/10/03 00:50:31;;;;;;;90.90;42.85;;;27.90;99.90;;;;;;5074891;28;20055;-65
2023/10/03 00:53:00;;;;;;;68.68;36.78;;;27.90;99.90;;;;;;5072454;28;20468;-65
2023/10/03 00:55:34;;;;;;;76.55;36.20;;;28.00;99.90;;;;;;5074554;28;20029;-66
2023/10/03 01:00:43;;;;;;;67.20;36.97;;;28.10;99.90;;;;;;5072161;28;20062;-65
2023/10/03 01:03:36;;;;;;;72.63;35.40;;;28.10;99.90;;;;;;5074572;28;20047;-65
2023/10/03 01:06:09;;;;;;;72.30;35.13;;;28.20;99.90;;;;;;5072616;28;20052;-66
2023/10/03 01:08:55;;;;;;;65.00;34.88;;;28.20;99.90;;;;;;5071813;28;20041;-71
2023/10/03 01:11:24;;;;;;;64.80;31.63;;;28.30;99.90;;;;;;5073316;28;20020;-71
2023/10/03 01:14:00;;;;;;;68.30;30.70;;;28.40;99.90;;;;;;5071770;28;20020;-70
2023/10/03 01:16:33;;;;;;;59.17;27.67;;;28.40;99.90;;;;;;5074218;28;20021;-70
2023/10/03 01:19:26;;;;;;;55.58;28.70;;;28.40;99.90;;;;;;5074029;28;20024;-65
2023/10/03 01:21:50;;;;;;;57.42;29.42;;;28.50;99.90;;;;;;5073321;28;20111;-66
2023/10/03 01:24:25;;;;;;;54.80;28.23;;;28.50;99.90;;;;;;5074405;28;20111;-65
2023/10/03 01:26:53;;;;;;;59.75;28.90;;;28.50;99.90;;;;;;5074208;28;20021;-65
2023/10/03 01:29:23;;;;;;;54.88;26.17;;;28.60;99.90;;;;;;5073966;28;20025;-66
2023/10/03 01:31:52;;;;;;;54.38;27.02;;;28.70;99.90;;;;;;5073978;28;20063;-66
2023/10/03 01:34:18;;;;;;;59.97;27.35;;;28.70;99.90;;;;;;5073762;28;20008;-66
2023/10/03 01:36:48;;;;;;;49.47;25.05;;;28.70;99.90;;;;;;5073998;28;20016;-66
2023/10/03 01:39:15;;;;;;;51.10;23.65;;;28.80;99.90;;;;;;5074407;28;20029;-64
2023/10/03 01:41:42;;;;;;;46.67;24.63;;;28.80;99.90;;;;;;5073973;28;20378;-65
2023/10/03 01:44:09;;;;;;;43.97;24.42;;;28.90;99.90;;;;;;5073905;28;20028;-65
2023/10/03 01:46:38;;;;;;;44.90;23.85;;;29.00;99.90;;;;;;5074099;28;20032;-65
2023/10/03 01:49:05;;;;;;;49.20;25.60;;;29.00;99.90;;;;;;5073539;28;20132;-66
2023/10/03 01:51:32;;;;;;;51.05;26.95;;;29.10;99.90;;;;;;5073739;28;20092;-65
2023/10/03 01:53:58;;;;;;;55.03;26.48;;;29.20;99.90;;;;;;5073405;28;20029;-66
2023/10/03 01:56:25;;;;;;;55.60;26.00;;;29.20;99.90;;;;;;5074863;28;20104;-65
2023/10/03 01:58:53;;;;;;;41.15;21.25;;;29.30;99.90;;;;;;5076834;28;20043;-67
2023/10/03 02:01:21;;;;;;;59.80;25.42;;;29.40;99.90;;;;;;5074856;28;20043;-65
2023/10/03 02:03:49;;;;;;;61.10;26.02;;;29.50;99.90;;;;;;5070787;28;20544;-66
2023/10/03 02:06:16;;;;;;;93.43;55.95;;;29.50;99.90;;;;;;5072844;28;20021;-64
2023/10/03 02:08:42;;;;;;;36.90;19.05;;;29.50;99.90;;;;;;5072954;28;20283;-65
2023/10/03 02:11:11;;;;;;;43.17;18.05;;;29.60;99.90;;;;;;5072619;28;20032;-64
2023/10/03 02:13:38;;;;;;;36.70;20.98;;;29.70;99.90;;;;;;5072831;28;20039;-65
2023/10/03 02:16:07;;;;;;;38.80;19.83;;;29.80;99.90;;;;;;5073538;28;20032;-66
2023/10/03 02:18:36;;;;;;;43.33;24.77;;;29.80;99.90;;;;;;5072409;28;20055;-64
2023/10/03 02:21:03;;;;;;;37.90;21.38;;;29.90;99.90;;;;;;5073120;28;20024;-65
2023/10/03 02:23:32;;;;;;;38.72;18.13;;;30.00;99.90;;;;;;5073085;28;20068;-65
2023/10/03 02:26:10;;;;;;;27.33;16.08;;;30.10;99.90;;;;;;5071340;28;20111;-65
2023/10/03 02:28:38;;;;;;;36.83;17.50;;;30.20;99.90;;;;;;5071308;28;20070;-67
2023/10/03 02:31:07;;;;;;;44.00;17.98;;;30.30;99.90;;;;;;5072305;28;20039;-63
2023/10/03 02:33:37;;;;;;;30.40;16.25;;;30.40;99.90;;;;;;5072578;28;20020;-64
2023/10/03 02:36:05;;;;;;;28.75;15.63;;;30.40;99.90;;;;;;5072533;28;20499;-65
2023/10/03 02:38:36;;;;;;;32.15;16.38;;;30.50;99.90;;;;;;5072401;28;20391;-65
2023/10/03 02:41:06;;;;;;;28.85;16.45;;;30.60;99.90;;;;;;5071918;28;20020;-65
2023/10/03 02:43:35;;;;;;;33.03;17.50;;;30.70;99.90;;;;;;5073580;28;20470;-65
2023/10/03 02:46:06;;;;;;;39.28;20.17;;;30.70;99.90;;;;;;5072515;28;20115;-66
2023/10/03 02:48:35;;;;;;;33.97;18.27;;;30.90;99.90;;;;;;5072685;28;20056;-65
2023/10/03 02:51:02;;;;;;;34.75;19.23;;;30.90;99.90;;;;;;5072757;28;20017;-66
2023/10/03 02:53:29;;;;;;;30.98;18.10;;;30.90;99.90;;;;;;5072695;28;20028;-66
2023/10/03 02:55:55;;;;;;;31.02;18.33;;;31.10;99.90;;;;;;5072939;28;20475;-67
2023/10/03 02:58:22;;;;;;;37.17;19.88;;;31.10;99.90;;;;;;5072619;28;20067;-66
2023/10/03 03:00:54;;;;;;;36.42;18.63;;;31.20;99.90;;;;;;5072405;28;20028;-66
2023/10/03 03:03:23;;;;;;;33.40;19.85;;;31.30;99.90;;;;;;5070282;28;20099;-66
2023/10/03 03:05:49;;;;;;;31.33;18.15;;;31.30;99.90;;;;;;5072085;28;20036;-64
2023/10/03 03:10:45;;;;;;;33.72;19.30;;;31.30;99.90;;;;;;5073274;28;20024;-66
2023/10/03 03:13:15;;;;;;;34.42;19.00;;;31.50;99.90;;;;;;5072857;28;20013;-66
2023/10/03 03:16:26;;;;;;;37.83;19.10;;;31.60;99.90;;;;;;5073107;28;20390;-66
2023/10/03 03:18:40;;;;;;;44.45;23.52;;;31.50;99.90;;;;;;5058878;28;20033;-64
2023/10/03 03:21:09;;;;;;;34.90;21.95;;;31.70;99.90;;;;;;5074302;28;20032;-65
2023/10/03 03:23:38;;;;;;;42.63;25.48;;;31.70;99.90;;;;;;5072802;28;20045;-64
2023/10/03 03:26:20;;;;;;;37.95;23.10;;;31.80;99.90;;;;;;5072720;28;20479;-65
2023/10/03 03:28:51;;;;;;;40.95;22.42;;;31.90;99.90;;;;;;5072904;28;20095;-65
2023/10/03 03:31:22;;;;;;;40.38;24.15;;;32.00;99.90;;;;;;5072755;28;20039;-65
2023/10/03 03:33:51;;;;;;;33.15;23.20;;;32.00;99.90;;;;;;5072040;28;20021;-65
2023/10/03 03:36:22;;;;;;;44.17;24.25;;;32.00;99.90;;;;;;5071763;28;20101;-65
2023/10/03 03:38:51;;;;;;;48.27;25.20;;;32.00;99.90;;;;;;5071010;28;20509;-65
2023/10/03 03:41:19;;;;;;;42.08;26.63;;;32.20;99.90;;;;;;5071779;28;20028;-66
2023/10/03 03:43:48;;;;;;;40.67;26.42;;;32.20;99.90;;;;;;5075236;28;20020;-66
2023/10/03 03:46:14;;;;;;;48.88;28.15;;;32.30;99.90;;;;;;5075122;28;20046;-66
2023/10/03 03:48:41;;;;;;;52.10;29.45;;;32.30;99.90;;;;;;5057410;28;20387;-65
2023/10/03 03:51:12;;;;;;;48.67;28.42;;;32.40;99.90;;;;;;5073579;28;20032;-65
2023/10/03 03:53:39;;;;;;;46.53;28.08;;;32.40;99.90;;;;;;5074274;28;20029;-67
2023/10/03 03:56:07;;;;;;;47.83;28.17;;;32.50;99.90;;;;;;5075055;28;20045;-66
2023/10/03 03:58:40;;;;;;;52.72;31.65;;;32.70;99.90;;;;;;5074016;28;20031;-66
2023/10/03 04:01:13;;;;;;;53.25;32.30;;;32.70;99.90;;;;;;5075127;28;20026;-64
2023/10/03 04:03:42;;;;;;;52.55;34.03;;;32.70;99.90;;;;;;5075182;28;20085;-66
2023/10/03 04:06:11;;;;;;;83.60;53.35;;;32.70;99.90;;;;;;5075007;28;20131;-64
2023/10/03 04:08:39;;;;;;;83.57;49.13;;;32.70;99.90;;;;;;5075008;28;20016;-65
2023/10/03 04:11:07;;;;;;;76.97;45.22;;;32.80;99.90;;;;;;5074457;28;20016;-66
2023/10/03 04:13:39;;;;;;;77.72;45.88;;;32.80;99.90;;;;;;5075154;28;20021;-67
2023/10/03 04:16:06;;;;;;;79.53;47.78;;;32.90;99.90;;;;;;5075307;28;20040;-65
2023/10/03 04:18:37;;;;;;;94.15;59.28;;;32.90;99.90;;;;;;5074922;28;20029;-65
2023/10/03 04:21:05;;;;;;;97.10;58.08;;;33.00;99.90;;;;;;5074726;28;20029;-66
2023/10/03 04:23:32;;;;;;;108.13;61.08;;;33.00;99.90;;;;;;5076123;28;20055;-65
2023/10/03 04:25:59;;;;;;;112.13;63.78;;;33.00;99.90;;;;;;5073182;28;20037;-66
2023/10/03 04:28:25;;;;;;;114.78;66.50;;;33.10;99.90;;;;;;5074672;28;20020;-65
2023/10/03 04:30:53;;;;;;;122.50;68.40;;;33.10;99.90;;;;;;5074555;28;20057;-66
2023/10/03 04:33:21;;;;;;;137.80;70.63;;;33.20;99.90;;;;;;5074401;28;20035;-67
2023/10/03 04:35:49;;;;;;;129.60;72.10;;;33.30;99.90;;;;;;5074862;28;20024;-66
2023/10/03 04:38:16;;;;;;;129.57;73.03;;;33.30;99.90;;;;;;5074644;28;20376;-67
2023/10/03 04:40:44;;;;;;;125.70;73.07;;;33.30;99.90;;;;;;5075021;28;20025;-66
2023/10/03 04:43:11;;;;;;;140.20;79.65;;;33.30;99.90;;;;;;5072597;28;20074;-66
2023/10/03 04:45:39;;;;;;;140.95;78.35;;;33.50;99.90;;;;;;5074677;28;20560;-67
2023/10/03 04:48:06;;;;;;;138.07;79.85;;;33.60;99.90;;;;;;5074125;28;20032;-68
2023/10/03 04:50:35;;;;;;;149.20;82.95;;;33.60;99.90;;;;;;5074325;28;20021;-67
2023/10/03 04:53:03;;;;;;;152.57;87.15;;;33.60;99.90;;;;;;5073580;28;20024;-67
2023/10/03 04:55:30;;;;;;;158.10;92.28;;;33.70;99.90;;;;;;5073570;28;20024;-68
2023/10/03 04:57:56;;;;;;;154.63;85.75;;;33.70;99.90;;;;;;5075224;28;20028;-68
2023/10/03 05:00:24;;;;;;;162.27;96.80;;;33.70;99.90;;;;;;5074462;28;20078;-67
2023/10/03 05:02:52;;;;;;;179.55;100.47;;;33.70;99.90;;;;;;5071511;28;20025;-66
2023/10/03 05:05:24;;;;;;;170.38;95.32;;;33.70;99.90;;;;;;5075019;28;20107;-66
2023/10/03 05:07:52;;;;;;;156.02;95.45;;;33.80;99.90;;;;;;5075315;28;20043;-65
2023/10/03 05:10:20;;;;;;;170.77;97.25;;;33.90;99.90;;;;;;5074569;28;20024;-66
2023/10/03 05:12:48;;;;;;;165.32;96.03;;;33.90;99.90;;;;;;5074355;28;20486;-67
2023/10/03 05:15:16;;;;;;;166.15;95.65;;;34.00;99.80;;;;;;5074219;28;20032;-67
2023/10/03 05:17:44;;;;;;;160.13;94.18;;;34.10;99.90;;;;;;5073782;28;20097;-67
2023/10/03 05:20:13;;;;;;;157.32;94.85;;;34.10;99.60;;;;;;5073768;28;20455;-69
2023/10/03 05:22:45;;;;;;;166.68;98.47;;;34.10;99.70;;;;;;5072902;28;20044;-67
2023/10/03 05:25:13;;;;;;;157.25;92.65;;;34.20;99.50;;;;;;5073159;28;20102;-68
2023/10/03 05:27:43;;;;;;;146.95;89.13;;;34.20;99.40;;;;;;5073216;28;20074;-67
2023/10/03 05:30:14;;;;;;;144.25;87.07;;;34.20;99.20;;;;;;5072972;28;20025;-68
2023/10/03 05:32:46;;;;;;;152.43;91.30;;;34.20;99.30;;;;;;5073307;28;20023;-68
2023/10/03 05:35:12;;;;;;;;;;;34.30;98.60;;;;;;5073308;28;20482;-67
2023/10/03 05:37:42;;;;;;;156.20;89.35;;;34.20;99.20;;;;;;5073248;28;19912;-67
2023/10/03 05:40:12;;;;;;;145.98;88.15;;;34.40;98.80;;;;;;5073818;28;20028;-68
2023/10/03 05:42:41;;;;;;;148.13;86.47;;;34.40;97.90;;;;;;5073962;28;20115;-68
2023/10/03 05:45:10;;;;;;;147.30;86.75;;;34.50;98.80;;;;;;5073996;28;20475;-68
2023/10/03 05:47:37;;;;;;;151.40;89.20;;;34.50;98.80;;;;;;5073939;28;20031;-67
2023/10/03 05:50:04;;;;;;;147.10;87.53;;;34.60;98.50;;;;;;5071174;28;20046;-66
2023/10/03 05:52:31;;;;;;;141.20;86.72;;;34.60;98.80;;;;;;5073982;28;20096;-66
2023/10/03 05:54:58;;;;;;;143.00;90.97;;;34.60;98.60;;;;;;5073503;28;20039;-67
2023/10/03 05:57:25;;;;;;;142.48;85.38;;;34.60;98.60;;;;;;5073457;28;20478;-67
2023/10/03 05:59:52;;;;;;;152.85;101.82;;;34.70;98.20;;;;;;5069995;28;20033;-68
2023/10/03 06:02:18;;;;;;;183.00;124.25;;;34.70;98.00;;;;;;5073329;28;20033;-67
2023/10/03 06:04:46;;;;;;;100.15;62.22;;;34.60;97.80;;;;;;5072925;28;20031;-67
2023/10/03 06:07:13;;;;;;;109.45;75.93;;;34.50;97.10;;;;;;5073488;28;20561;-69
2023/10/03 06:09:39;;;;;;;89.30;58.15;;;34.50;97.40;;;;;;5073383;28;20394;-66
2023/10/03 06:12:06;;;;;;;84.80;56.45;;;34.40;96.80;;;;;;5072562;28;20035;-65
2023/10/03 06:14:33;;;;;;;96.45;63.60;;;34.40;97.20;;;;;;5073912;28;20048;-65
2023/10/03 06:17:00;;;;;;;98.10;64.15;;;34.40;97.50;;;;;;5073655;28;20082;-66
2023/10/03 06:19:26;;;;;;;165.38;117.03;;;34.50;97.30;;;;;;5072659;28;20021;-66
2023/10/03 06:21:53;;;;;;;113.75;74.88;;;34.50;97.40;;;;;;5072958;28;20037;-66
2023/10/03 06:24:20;;;;;;;124.85;86.32;;;34.60;96.90;;;;;;5072710;28;20491;-65
2023/10/03 06:26:47;;;;;;;101.53;69.88;;;34.60;97.10;;;;;;5073259;28;20037;-66
2023/10/03 06:29:15;;;;;;;104.80;69.65;;;34.60;96.70;;;;;;5072521;28;20479;-66
2023/10/03 06:31:42;;;;;;;119.55;78.20;;;34.60;96.20;;;;;;5058749;28;20388;-66
2023/10/03 06:34:08;;;;;;;132.82;85.45;;;34.60;96.20;;;;;;5053002;28;20021;-68
2023/10/03 06:36:35;;;;;;;127.00;81.72;;;34.60;96.40;;;;;;5052981;28;20055;-67
2023/10/03 06:39:04;;;;;;;129.32;80.18;;;34.60;95.90;;;;;;5053085;28;20032;-69
2023/10/03 06:41:31;;;;;;;120.32;78.40;;;34.70;96.00;;;;;;5053324;28;20558;-69
2023/10/03 06:43:58;;;;;;;116.60;77.10;;;34.80;96.20;;;;;;5053043;28;20036;-67
2023/10/03 06:46:25;;;;;;;163.27;103.80;;;35.00;96.00;;;;;;5052635;28;20075;-68
2023/10/03 06:48:52;;;;;;;200.35;132.70;;;35.00;95.90;;;;;;5052982;28;20100;-69
2023/10/03 06:51:19;;;;;;;125.55;80.55;;;35.10;96.10;;;;;;5052859;28;20021;-68
2023/10/03 06:53:48;;;;;;;115.20;79.47;;;35.20;94.50;;;;;;5053083;28;20053;-67
2023/10/03 06:56:15;;;;;;;116.95;76.25;;;35.30;95.40;;;;;;5052926;28;20437;-66
2023/10/03 06:58:42;;;;;;;133.02;82.72;;;35.30;95.20;;;;;;5052392;28;20025;-67
2023/10/03 07:01:11;;;;;;;122.40;79.63;;;35.30;95.00;;;;;;5052907;28;20021;-68
2023/10/03 07:03:40;;;;;;;122.57;78.07;;;35.30;94.60;;;;;;5052928;28;20099;-66
2023/10/03 07:06:07;;;;;;;144.85;87.82;;;35.20;94.30;;;;;;5052852;28;20116;-66
2023/10/03 07:08:35;;;;;;;143.38;95.60;;;35.20;94.10;;;;;;5052963;28;20127;-67
2023/10/03 07:11:02;;;;;;;144.20;93.20;;;35.40;94.80;;;;;;5052988;28;20036;-66
2023/10/03 07:13:29;;;;;;;157.30;93.65;;;35.50;94.60;;;;;;5052964;28;20403;-67
2023/10/03 07:15:58;;;;;;;133.68;89.97;;;35.50;95.00;;;;;;5054368;28;20044;-66
2023/10/03 07:18:25;;;;;;;136.63;94.10;;;35.40;94.50;;;;;;5076063;28;20029;-66
2023/10/03 07:20:51;;;;;;;140.00;94.68;;;35.40;94.50;;;;;;5076656;28;20025;-67
2023/10/03 07:23:19;;;;;;;122.07;80.20;;;35.50;94.30;;;;;;5076102;28;20110;-66
2023/10/03 07:25:46;;;;;;;117.00;77.07;;;35.50;94.10;;;;;;5076031;28;20032;-66
2023/10/03 07:28:14;;;;;;;115.35;76.38;;;35.50;94.20;;;;;;5076589;28;20046;-65
2023/10/03 07:30:41;;;;;;;129.23;78.05;;;35.50;94.00;;;;;;5076705;28;20471;-66
2023/10/03 07:33:09;;;;;;;117.95;77.55;;;35.50;93.90;;;;;;5076458;28;20035;-66
2023/10/03 07:35:40;;;;;;;113.38;77.65;;;35.50;93.80;;;;;;5076406;28;20032;-65
2023/10/03 07:38:11;;;;;;;119.18;79.95;;;35.50;93.80;;;;;;5076428;28;20024;-66
2023/10/03 07:40:38;;;;;;;128.90;83.30;;;35.50;93.10;;;;;;5076403;28;20056;-66
2023/10/03 07:43:12;;;;;;;126.45;85.75;;;35.50;93.40;;;;;;5075578;28;20108;-66
2023/10/03 07:45:40;;;;;;;133.45;92.30;;;35.50;93.60;;;;;;5076077;28;20395;-67
2023/10/03 07:48:10;;;;;;;131.23;93.10;;;35.60;92.60;;;;;;5075918;28;20028;-66
2023/10/03 07:50:43;;;;;;;136.32;93.88;;;35.60;92.90;;;;;;5076258;28;20501;-66
2023/10/03 07:53:11;;;;;;;141.85;96.93;;;35.60;93.20;;;;;;5076080;28;20036;-71
2023/10/03 07:55:41;;;;;;;128.50;87.63;;;35.70;93.00;;;;;;5076068;28;20029;-72
2023/10/03 07:58:08;;;;;;;123.15;82.25;;;35.70;92.50;;;;;;5076320;28;20024;-66
2023/10/03 08:00:35;;;;;;;126.38;88.32;;;35.70;92.50;;;;;;5075870;28;20031;-66
2023/10/03 08:03:08;;;;;;;131.57;91.63;;;35.70;92.60;;;;;;5075782;28;20055;-66
2023/10/03 08:05:35;;;;;;;122.93;87.78;;;35.80;92.50;;;;;;5075137;28;20029;-67
2023/10/03 08:08:02;;;;;;;128.30;90.90;;;35.90;92.30;;;;;;5074343;28;20016;-67
2023/10/03 08:10:30;;;;;;;132.75;92.95;;;35.90;92.40;;;;;;5074345;28;20095;-66
2023/10/03 08:12:58;;;;;;;151.00;102.60;;;35.90;92.00;;;;;;5071297;28;20552;-67
2023/10/03 08:15:31;;;;;;;143.38;98.78;;;36.00;91.60;;;;;;5073574;28;20024;-67
2023/10/03 08:17:59;;;;;;;139.60;97.22;;;36.00;91.80;;;;;;5073714;28;20032;-67
2023/10/03 08:20:27;;;;;;;140.30;97.30;;;36.00;92.40;;;;;;5073366;28;20017;-67
2023/10/03 08:22:54;;;;;;;143.35;100.72;;;36.00;92.20;;;;;;5071146;28;20044;-68
2023/10/03 08:25:25;;;;;;;143.40;100.75;;;36.00;92.00;;;;;;5074879;28;20121;-66
2023/10/03 08:27:55;;;;;;;150.17;102.17;;;35.90;92.30;;;;;;5074960;28;20121;-67
2023/10/03 08:30:30;;;;;;;151.75;100.00;;;36.00;92.20;;;;;;5074188;28;20048;-67
2023/10/03 08:33:05;;;;;;;136.70;98.18;;;36.00;92.40;;;;;;5074361;28;20109;-68
2023/10/03 08:35:35;;;;;;;141.88;99.80;;;36.00;92.20;;;;;;5072519;28;20039;-68
2023/10/03 08:38:11;;;;;;;163.15;102.07;;;36.00;92.10;;;;;;5071983;28;20104;-68
2023/10/03 08:40:40;;;;;;;145.13;101.13;;;36.00;91.90;;;;;;5072470;28;20028;-69
2023/10/03 08:43:09;;;;;;;138.20;98.85;;;35.90;91.40;;;;;;5074237;28;20395;-67
2023/10/03 08:45:43;;;;;;;155.27;108.18;;;35.90;91.80;;;;;;5074439;28;20025;-67
2023/10/03 08:48:10;;;;;;;145.73;102.65;;;35.90;92.00;;;;;;5071941;28;20024;-67
2023/10/03 08:50:52;;;;;;;151.52;108.10;;;35.90;91.90;;;;;;5074270;28;20425;-68
2023/10/03 08:53:31;;;;;;;165.02;112.97;;;36.00;91.80;;;;;;5072611;28;20028;-66
2023/10/03 08:55:58;;;;;;;168.98;117.68;;;35.90;91.50;;;;;;5076263;28;20025;-67
2023/10/03 08:58:26;;;;;;;167.75;116.20;;;35.80;91.80;;;;;;5074009;28;20017;-67
2023/10/03 09:01:04;;;;;;;170.95;123.15;;;35.80;91.90;;;;;;5073154;28;20028;-68
2023/10/03 09:03:54;;;;;;;217.50;149.98;;;35.80;92.00;;;;;;5072063;28;20040;-66
2023/10/03 09:06:23;;;;;;;232.18;149.55;;;35.70;92.70;;;;;;5072308;28;20059;-67
2023/10/03 09:09:08;;;;;;;206.25;142.43;;;35.70;93.50;;;;;;5073441;28;20150;-65
2023/10/03 09:11:37;;;;;;;238.02;154.05;;;35.60;94.00;;;;;;5073846;28;20032;-67
2023/10/03 09:14:19;;;;;;;230.45;150.40;;;35.50;94.20;;;;;;5073624;28;20017;-67
2023/10/03 09:16:50;;;;;;;;;;;35.40;94.40;;;;;;5073304;28;20036;-68
2023/10/03 09:19:23;;;;;;;242.80;157.02;;;35.20;94.40;;;;;;5076590;28;19923;-65
2023/10/03 09:21:51;;;;;;;237.77;155.48;;;35.10;94.80;;;;;;5074437;28;20046;-71
2023/10/03 09:24:21;;;;;;;259.10;162.45;;;35.20;95.50;;;;;;5074201;28;20040;-70
2023/10/03 09:26:51;;;;;;;240.20;160.00;;;35.30;95.30;;;;;;5080106;28;20040;-69
2023/10/03 09:29:29;;;;;;;251.77;162.38;;;35.30;95.40;;;;;;5073776;28;20020;-72
2023/10/03 09:31:57;;;;;;;243.10;159.57;;;35.20;95.00;;;;;;5073195;28;20065;-67
2023/10/03 09:34:30;;;;;;;238.15;161.60;;;35.00;95.30;;;;;;5072880;28;20085;-67
2023/10/03 09:37:02;;;;;;;240.38;160.18;;;34.90;95.60;;;;;;5071616;28;20024;-67
2023/10/03 09:39:57;;;;;;;242.68;156.40;;;34.90;95.80;;;;;;5068880;28;20021;-67
2023/10/03 09:42:23;;;;;;;229.50;156.52;;;35.00;96.20;;;;;;5071188;28;20033;-66
2023/10/03 09:44:50;;;;;;;232.88;159.30;;;35.00;96.10;;;;;;5071301;28;20029;-67
2023/10/03 09:47:29;;;;;;;257.98;158.30;;;34.90;95.80;;;;;;5075246;28;20028;-68
2023/10/03 09:50:08;;;;;;;263.75;160.77;;;34.90;96.00;;;;;;5072032;28;20475;-70
2023/10/03 09:52:37;;;;;;;238.23;160.05;;;34.90;96.30;;;;;;5073159;28;20035;-71
2023/10/03 09:55:21;;;;;;;228.70;150.73;;;34.90;96.60;;;;;;5073730;28;20047;-66
2023/10/03 09:57:54;;;;;;;232.40;144.60;;;34.90;96.80;;;;;;5073759;28;20040;-68
2023/10/03 10:00:50;;;;;;;206.93;139.60;;;34.80;96.90;;;;;;5073503;28;20020;-67
2023/10/03 10:03:26;;;;;;;211.85;141.85;;;34.70;97.10;;;;;;5073081;28;20390;-67
2023/10/03 10:06:04;;;;;;;190.77;127.55;;;34.60;97.20;;;;;;5073520;28;20032;-67
2023/10/03 10:08:41;;;;;;;206.00;130.48;;;34.60;97.50;;;;;;5073314;28;20024;-71
2023/10/03 10:11:09;;;;;;;221.85;141.65;;;34.50;97.60;;;;;;5073211;28;20021;-67
2023/10/03 10:13:45;;;;;;;204.00;135.25;;;34.50;97.30;;;;;;5073474;28;20020;-67
2023/10/03 10:16:13;;;;;;;185.07;127.65;;;34.30;97.30;;;;;;5073627;28;20032;-67
2023/10/03 10:18:46;;;;;;;200.93;135.63;;;34.20;97.90;;;;;;5073182;28;20033;-68
2023/10/03 10:21:24;;;;;;;201.10;136.93;;;34.30;98.20;;;;;;5073666;28;20108;-67
2023/10/03 10:24:15;;;;;;;210.15;139.00;;;34.30;98.20;;;;;;5073042;28;20051;-67
2023/10/03 10:26:48;;;;;;;237.65;152.13;;;34.20;98.20;;;;;;5073221;28;20081;-70
2023/10/03 10:29:20;;;;;;;241.77;153.48;;;34.20;98.50;;;;;;5073264;28;20021;-66
2023/10/03 10:32:09;;;;;;;253.18;169.27;;;34.20;98.60;;;;;;5073365;28;20023;-68
2023/10/03 10:34:40;;;;;;;230.43;152.05;;;34.10;98.70;;;;;;5072845;28;20395;-66
2023/10/03 10:37:09;;;;;;;;;;;34.10;99.20;;;;;;5073777;28;20025;-69
2023/10/03 10:39:54;;;;;;;282.42;148.00;;;34.10;98.90;;;;;;5073035;28;19904;-70
2023/10/03 10:42:30;;;;;;;362.85;149.20;;;34.00;98.90;;;;;;5073202;28;20103;-67
2023/10/03 10:45:14;;;;;;;1071.50;738.75;;;33.90;99.10;;;;;;5072872;28;20035;-67
2023/10/03 10:47:45;;;;;;;570.88;428.33;;;33.90;99.10;;;;;;5072733;28;20029;-67
2023/10/03 10:50:12;;;;;;;304.98;203.23;;;33.80;99.40;;;;;;5072680;28;20452;-67
2023/10/03 10:53:02;;;;;;;250.77;159.82;;;33.80;99.40;;;;;;5073229;28;20028;-67
2023/10/03 10:55:29;;;;;;;238.43;156.48;;;33.80;99.60;;;;;;5079284;28;20640;-67
2023/10/03 10:58:03;;;;;;;238.07;152.25;;;33.80;99.50;;;;;;5068770;28;20024;-66
2023/10/03 11:00:33;;;;;;;209.00;137.23;;;33.70;99.70;;;;;;5074543;28;20032;-66
2023/10/03 11:03:02;;;;;;;199.13;130.65;;;33.70;99.80;;;;;;5068527;28;20034;-67
2023/10/03 11:05:50;;;;;;;186.20;125.53;;;33.60;99.80;;;;;;5071045;28;20032;-65
2023/10/03 11:08:17;;;;;;;188.77;121.13;;;33.50;99.90;;;;;;5069345;28;20040;-67
2023/10/03 11:10:55;;;;;;;182.27;121.40;;;33.50;99.90;;;;;;5070564;28;20020;-67
2023/10/03 11:13:22;;;;;;;166.40;112.38;;;33.40;99.90;;;;;;5071911;28;20153;-66
2023/10/03 11:15:49;;;;;;;169.73;105.75;;;33.40;99.90;;;;;;5070592;28;20021;-66
2023/10/03 11:18:18;;;;;;;140.55;97.03;;;33.30;99.90;;;;;;5070597;28;20023;-65
2023/10/03 11:20:46;;;;;;;160.98;112.60;;;33.20;99.90;;;;;;5069072;28;20020;-65
2023/10/03 11:23:19;;;;;;;119.95;83.38;;;33.20;99.90;;;;;;5070290;28;20045;-65
2023/10/03 11:26:00;;;;;;;109.78;70.68;;;33.20;99.90;;;;;;5070123;28;20032;-67
2023/10/03 11:28:32;;;;;;;103.70;65.40;;;33.10;99.90;;;;;;5072845;28;20017;-67
2023/10/03 11:31:05;;;;;;;84.72;50.28;;;33.00;99.90;;;;;;5068445;28;20112;-67
2023/10/03 11:33:47;;;;;;;74.32;48.75;;;32.90;99.90;;;;;;5070718;28;20023;-65
2023/10/03 11:36:14;;;;;;;72.40;46.63;;;32.90;99.90;;;;;;5070747;28;20020;-67
2023/10/03 11:38:45;;;;;;;76.50;49.45;;;32.90;99.90;;;;;;5070274;28;20032;-66
2023/10/03 11:41:12;;;;;;;103.75;62.70;;;32.90;99.90;;;;;;5069137;28;20382;-66
2023/10/03 11:43:47;;;;;;;142.32;84.93;;;32.90;99.90;;;;;;5070411;28;20021;-67
2023/10/03 11:46:15;;;;;;;199.32;119.05;;;32.80;99.90;;;;;;5071036;28;20032;-66
2023/10/03 11:48:42;;;;;;;217.90;136.85;;;32.80;99.90;;;;;;5071549;28;20029;-65
2023/10/03 11:51:09;;;;;;;245.32;142.00;;;32.70;99.90;;;;;;5071503;28;20012;-66
2023/10/03 11:53:35;;;;;;;339.67;207.55;;;32.70;99.90;;;;;;5070049;28;20029;-66
2023/10/03 11:56:02;;;;;;;376.80;227.02;;;32.50;99.90;;;;;;5071618;28;20021;-66
2023/10/03 11:58:28;;;;;;;386.50;239.63;;;32.50;99.90;;;;;;5070586;28;20074;-66
2023/10/03 12:00:55;;;;;;;340.02;211.85;;;32.40;99.90;;;;;;5070436;28;20479;-65
2023/10/03 12:03:21;;;;;;;349.58;219.48;;;32.30;99.90;;;;;;5072148;28;20417;-67
2023/10/03 12:05:52;;;;;;;332.95;205.68;;;32.30;99.90;;;;;;5075157;28;20097;-66
2023/10/03 12:08:19;;;;;;;369.65;229.80;;;32.30;99.90;;;;;;5074844;28;20024;-65
2023/10/03 12:10:45;;;;;;;358.88;217.43;;;32.30;99.90;;;;;;5073983;28;20077;-63
2023/10/03 12:13:15;;;;;;;312.00;196.38;;;32.30;99.90;;;;;;5072051;28;20031;-64
2023/10/03 12:15:42;;;;;;;310.70;193.07;;;32.20;99.90;;;;;;5072524;28;20467;-63
2023/10/03 12:18:09;;;;;;;301.65;190.50;;;32.20;99.90;;;;;;5071303;28;20033;-62
2023/10/03 12:20:38;;;;;;;293.70;186.75;;;32.20;99.90;;;;;;5074652;28;20486;-64
2023/10/03 12:23:04;;;;;;;302.60;191.32;;;32.20;99.90;;;;;;5072161;28;20154;-62
2023/10/03 12:25:31;;;;;;;315.75;195.70;;;32.10;99.90;;;;;;5072253;28;20027;-62
2023/10/03 12:27:58;;;;;;;290.63;188.30;;;32.20;99.90;;;;;;5074117;28;20035;-62
2023/10/03 12:30:25;;;;;;;290.05;186.27;;;32.10;99.90;;;;;;5072485;28;20020;-63
2023/10/03 12:32:53;;;;;;;289.70;185.23;;;32.10;99.90;;;;;;5071639;28;20028;-63
2023/10/03 12:35:20;;;;;;;299.80;197.27;;;32.10;99.90;;;;;;5063396;28;20043;-63
2023/10/03 12:37:48;;;;;;;303.00;192.32;;;32.10;99.90;;;;;;5075214;28;20028;-63
2023/10/03 12:40:21;;;;;;;318.25;202.40;;;32.00;99.90;;;;;;5078084;28;20052;-65